QLK623 YWLM-YSCB
Flight info
| Callsign | QLK623 |
|---|---|
| Flight time | N/A |
| Altitude | 30000 |
| Route | WLM DCT LIMLO H536 OMLAV Q15 WOL H65 LEECE |
| Aircraft | E190/M-SDE3GILORVW/S |
Departure
| Time | 2026-04-25 07:43 |
|---|---|
| Airport | Newcastle Airport (YWLM) |
Arrival
| Time | N/A |
|---|---|
| Airport | Canberra Airport (YSCB) |
| Time | Latitude | Longitude | Altitude | Speed | Heading |
|---|---|---|---|---|---|
| 2026-04-25 07:28 | -32.80407 | 151.84076 | 33 ft | 0 kts | 272° |
| 2026-04-25 07:37 | -32.80407 | 151.84074 | 33 ft | 0 kts | 280° |
| 2026-04-25 07:37 | -32.80405 | 151.84073 | 33 ft | 1 kts | 312° |
| 2026-04-25 07:37 | -32.80367 | 151.84061 | 33 ft | 10 kts | 349° |
| 2026-04-25 07:38 | -32.80290 | 151.84003 | 33 ft | 14 kts | 309° |
| 2026-04-25 07:38 | -32.80227 | 151.83913 | 33 ft | 14 kts | 311° |
| 2026-04-25 07:38 | -32.80155 | 151.83827 | 33 ft | 14 kts | 339° |
| 2026-04-25 07:38 | -32.80057 | 151.83829 | 33 ft | 13 kts | 9° |
| 2026-04-25 07:39 | -32.79959 | 151.83849 | 33 ft | 14 kts | 11° |
| 2026-04-25 07:39 | -32.79861 | 151.83879 | 33 ft | 14 kts | 30° |
| 2026-04-25 07:39 | -32.79794 | 151.83963 | 33 ft | 12 kts | 53° |
| 2026-04-25 07:39 | -32.79724 | 151.83958 | 33 ft | 12 kts | 308° |
| 2026-04-25 07:40 | -32.79657 | 151.83867 | 33 ft | 17 kts | 311° |
| 2026-04-25 07:40 | -32.79565 | 151.83742 | 33 ft | 21 kts | 310° |
| 2026-04-25 07:40 | -32.79467 | 151.83603 | 33 ft | 22 kts | 309° |
| 2026-04-25 07:40 | -32.79365 | 151.83466 | 33 ft | 17 kts | 310° |
| 2026-04-25 07:41 | -32.79338 | 151.83432 | 33 ft | 3 kts | 335° |
| 2026-04-25 07:41 | -32.79296 | 151.83372 | 33 ft | 16 kts | 308° |
| 2026-04-25 07:41 | -32.79214 | 151.83252 | 33 ft | 19 kts | 308° |
| 2026-04-25 07:41 | -32.79142 | 151.83141 | 33 ft | 10 kts | 307° |
| 2026-04-25 07:42 | -32.79146 | 151.83063 | 33 ft | 10 kts | 219° |
| 2026-04-25 07:42 | -32.79199 | 151.83014 | 33 ft | 7 kts | 218° |
| 2026-04-25 07:42 | -32.79247 | 151.83003 | 33 ft | 6 kts | 146° |
| 2026-04-25 07:42 | -32.79263 | 151.83026 | 33 ft | 4 kts | 130° |
| 2026-04-25 07:43 | -32.79469 | 151.83315 | 33 ft | 91 kts | 130° |
| 2026-04-25 07:43 | -32.80058 | 151.84126 | 68 ft | 161 kts | 131° |
| 2026-04-25 07:43 | -32.80875 | 151.85158 | 657 ft | 184 kts | 135° |
| 2026-04-25 07:43 | -32.82065 | 151.85641 | 1711 ft | 190 kts | 175° |
| 2026-04-25 07:44 | -32.83430 | 151.85576 | 2415 ft | 205 kts | 178° |
| 2026-04-25 07:44 | -32.84890 | 151.85547 | 3078 ft | 223 kts | 178° |
| 2026-04-25 07:44 | -32.86552 | 151.85556 | 3513 ft | 256 kts | 176° |
| 2026-04-25 07:44 | -32.88415 | 151.85597 | 4256 ft | 274 kts | 176° |
| 2026-04-25 07:45 | -32.90326 | 151.85657 | 5308 ft | 279 kts | 176° |
| 2026-04-25 07:45 | -32.92243 | 151.85724 | 6462 ft | 277 kts | 176° |
| 2026-04-25 07:45 | -32.94154 | 151.85794 | 7565 ft | 277 kts | 175° |
| 2026-04-25 07:45 | -32.96051 | 151.85867 | 8563 ft | 278 kts | 175° |
| 2026-04-25 07:46 | -32.97993 | 151.85944 | 9491 ft | 281 kts | 175° |
| 2026-04-25 07:46 | -32.99946 | 151.86021 | 10353 ft | 286 kts | 175° |
| 2026-04-25 07:46 | -33.01940 | 151.86101 | 11173 ft | 291 kts | 175° |
| 2026-04-25 07:46 | -33.03993 | 151.86182 | 11891 ft | 300 kts | 175° |
| 2026-04-25 07:47 | -33.06126 | 151.86215 | 12526 ft | 312 kts | 177° |
| 2026-04-25 07:47 | -33.08321 | 151.86226 | 13202 ft | 321 kts | 177° |
| 2026-04-25 07:47 | -33.10558 | 151.86235 | 13980 ft | 326 kts | 177° |
| 2026-04-25 07:47 | -33.12821 | 151.86246 | 14804 ft | 329 kts | 178° |
| 2026-04-25 07:48 | -33.15143 | 151.86256 | 15622 ft | 333 kts | 178° |
| 2026-04-25 07:48 | -33.17466 | 151.86267 | 16410 ft | 336 kts | 178° |
| 2026-04-25 07:48 | -33.19810 | 151.86278 | 17180 ft | 340 kts | 178° |
| 2026-04-25 07:48 | -33.22141 | 151.85738 | 17903 ft | 349 kts | 201° |
| 2026-04-25 07:49 | -33.24323 | 151.84421 | 18646 ft | 354 kts | 205° |
| 2026-04-25 07:49 | -33.26502 | 151.83044 | 19368 ft | 358 kts | 205° |
| 2026-04-25 07:49 | -33.28709 | 151.81648 | 20085 ft | 362 kts | 205° |
| 2026-04-25 07:49 | -33.30936 | 151.80237 | 20796 ft | 365 kts | 205° |
| 2026-04-25 07:50 | -33.33169 | 151.78819 | 21488 ft | 369 kts | 205° |
| 2026-04-25 07:50 | -33.35443 | 151.77376 | 22165 ft | 372 kts | 205° |
| 2026-04-25 07:50 | -33.37752 | 151.75909 | 22828 ft | 376 kts | 205° |
| 2026-04-25 07:50 | -33.40081 | 151.74429 | 23477 ft | 380 kts | 204° |
| 2026-04-25 07:51 | -33.42411 | 151.72948 | 24127 ft | 383 kts | 204° |
| 2026-04-25 07:51 | -33.44758 | 151.71454 | 24774 ft | 385 kts | 205° |
| 2026-04-25 07:51 | -33.47122 | 151.69948 | 25405 ft | 388 kts | 205° |
| 2026-04-25 07:51 | -33.49504 | 151.68430 | 26014 ft | 390 kts | 205° |
| 2026-04-25 07:52 | -33.51913 | 151.66895 | 26610 ft | 393 kts | 205° |
| 2026-04-25 07:52 | -33.54328 | 151.65353 | 27200 ft | 395 kts | 205° |
| 2026-04-25 07:52 | -33.56762 | 151.63800 | 27760 ft | 398 kts | 205° |
| 2026-04-25 07:52 | -33.59208 | 151.62238 | 28305 ft | 401 kts | 205° |
| 2026-04-25 07:53 | -33.61655 | 151.60672 | 28836 ft | 403 kts | 205° |
| 2026-04-25 07:53 | -33.64155 | 151.59073 | 29364 ft | 406 kts | 205° |